createdAt,value
2016-04-03T00:00:29.931Z,21.88
2016-04-03T00:01:29.934Z,21.79
2016-04-03T00:02:29.936Z,21.88
2016-04-03T00:03:29.955Z,21.69
2016-04-03T00:04:29.958Z,21.88
2016-04-03T00:05:29.960Z,22.27
2016-04-03T00:06:29.978Z,21.88
2016-04-03T00:07:29.966Z,22.17
2016-04-03T00:08:30.078Z,21.98
2016-04-03T00:09:29.986Z,21.79
2016-04-03T00:10:29.989Z,21.79
2016-04-03T00:11:29.991Z,22.17
2016-04-03T00:12:29.994Z,22.27
2016-04-03T00:13:29.997Z,22.17
2016-04-03T00:14:30.016Z,22.17
2016-04-03T00:15:30.018Z,22.27
2016-04-03T00:16:30.021Z,22.17
2016-04-03T00:17:30.024Z,22.27
2016-04-03T00:18:30.042Z,21.88
2016-04-03T00:19:30.092Z,21.88
2016-04-03T00:20:30.032Z,21.88
2016-04-03T00:21:30.050Z,21.79
2016-04-03T00:22:30.053Z,21.79
2016-04-03T00:23:30.071Z,21.69
2016-04-03T00:24:30.058Z,21.98
2016-04-03T00:25:30.076Z,21.88
2016-04-03T00:26:30.080Z,22.17
2016-04-03T00:27:30.082Z,21.98
2016-04-03T00:28:30.085Z,21.79
2016-04-03T00:29:30.088Z,22.17
2016-04-03T00:30:30.090Z,21.79
2016-04-03T00:31:30.093Z,21.98
2016-04-03T00:32:30.111Z,21.79
2016-04-03T00:33:30.114Z,22.27
2016-04-03T00:34:30.289Z,22.17
2016-04-03T00:35:30.119Z,22.27
2016-04-03T00:36:30.122Z,22.27
2016-04-03T00:37:30.139Z,22.36
2016-04-03T00:38:30.142Z,22.08
2016-04-03T00:39:30.145Z,21.88
2016-04-03T00:40:30.148Z,22.27
2016-04-03T00:41:30.167Z,22.36
2016-04-03T00:42:30.154Z,22.27
2016-04-03T00:43:30.172Z,22.17
2016-04-03T00:44:30.175Z,22.46
2016-04-03T00:45:30.193Z,21.69
2016-04-03T00:46:30.180Z,21.79
2016-04-03T00:47:30.199Z,21.88
2016-04-03T00:48:30.185Z,21.88
2016-04-03T00:49:30.282Z,22.27
2016-04-03T00:50:30.206Z,21.98
2016-04-03T00:51:30.209Z,21.88
2016-04-03T00:52:30.212Z,21.88
2016-04-03T00:53:30.215Z,21.88
2016-04-03T00:54:30.233Z,21.79
2016-04-03T00:55:30.235Z,21.98
2016-04-03T00:56:30.238Z,21.98
2016-04-03T00:57:30.240Z,22.08
2016-04-03T00:58:30.243Z,22.17
2016-04-03T00:59:30.262Z,21.79
2016-04-03T01:00:30.248Z,22.17
2016-04-03T01:01:30.268Z,22.17
2016-04-03T01:02:30.270Z,22.27
2016-04-03T01:03:30.273Z,21.88
2016-04-03T01:04:30.510Z,22.56
2016-04-03T01:05:30.279Z,22.08
2016-04-03T01:06:30.296Z,21.88
2016-04-03T01:07:30.299Z,22.08
2016-04-03T01:08:30.308Z,22.08
2016-04-03T01:09:30.296Z,21.79
2016-04-03T01:10:30.313Z,22.27
2016-04-03T01:11:30.316Z,22.27
2016-04-03T01:12:30.335Z,22.56
2016-04-03T01:13:30.321Z,22.17
2016-04-03T01:14:30.340Z,22.46
2016-04-03T01:15:30.342Z,22.46
2016-04-03T01:16:30.346Z,22.27
2016-04-03T01:17:30.352Z,22.17
2016-04-03T01:18:30.355Z,22.27
2016-04-03T01:19:30.295Z,22.27
2016-04-03T01:20:30.360Z,22.27
2016-04-03T01:21:30.378Z,22.17
2016-04-03T01:22:30.380Z,22.27
2016-04-03T01:23:30.383Z,22.27
2016-04-03T01:24:30.386Z,22.17
2016-04-03T01:25:30.405Z,22.08
2016-04-03T01:26:30.392Z,22.08
2016-04-03T01:27:30.411Z,22.36
2016-04-03T01:28:30.257Z,22.17
2016-04-03T01:29:30.416Z,22.36
2016-04-03T01:30:30.418Z,22.08
2016-04-03T01:31:30.437Z,22.17
2016-04-03T01:32:30.440Z,22.08
2016-04-03T01:33:30.442Z,22.27
2016-04-03T01:34:30.601Z,22.27
2016-04-03T01:35:30.447Z,22.08
2016-04-03T01:36:30.465Z,22.17
2016-04-03T01:37:30.453Z,22.08
2016-04-03T01:38:30.470Z,22.27
2016-04-03T01:39:30.474Z,22.08
2016-04-03T01:40:30.476Z,22.08
2016-04-03T01:41:30.479Z,22.08
2016-04-03T01:42:30.481Z,22.17
2016-04-03T01:43:30.484Z,22.08
2016-04-03T01:44:30.487Z,22.46
2016-04-03T01:45:30.505Z,22.08
2016-04-03T01:46:30.508Z,22.46
2016-04-03T01:47:30.527Z,22.17
2016-04-03T01:48:30.514Z,22.56
2016-04-03T01:49:30.579Z,22.56
2016-04-03T01:50:30.535Z,22.46
2016-04-03T01:51:30.553Z,22.17
2016-04-03T01:52:30.540Z,22.56
2016-04-03T01:53:30.558Z,22.46
2016-04-03T01:54:30.546Z,22.56
2016-04-03T01:55:30.564Z,22.56
2016-04-03T01:56:30.566Z,22.56
2016-04-03T01:57:30.569Z,22.56
2016-04-03T01:58:30.571Z,22.46
2016-04-03T01:59:30.574Z,22.94
2016-04-03T02:00:30.577Z,22.94
2016-04-03T02:01:30.596Z,22.56
2016-04-03T02:02:30.599Z,22.56
2016-04-03T02:03:30.601Z,22.85
2016-04-03T02:04:30.666Z,22.56
2016-04-03T02:05:30.606Z,22.85
2016-04-03T02:06:30.624Z,22.75
2016-04-03T02:07:30.617Z,22.85
2016-04-03T02:08:30.634Z,22.75
2016-04-03T02:09:30.637Z,22.75
2016-04-03T02:10:30.656Z,22.94
2016-04-03T02:11:30.643Z,22.94
2016-04-03T02:12:30.662Z,22.75
2016-04-03T02:13:30.648Z,22.75
2016-04-03T02:14:30.667Z,22.85
2016-04-03T02:15:30.669Z,22.66
2016-04-03T02:16:30.672Z,22.85
2016-04-03T02:17:30.675Z,22.85
2016-04-03T02:18:30.693Z,23.04
2016-04-03T02:19:30.696Z,22.56
2016-04-03T02:20:30.729Z,22.94
2016-04-03T02:21:30.716Z,22.94
2016-04-03T02:22:30.704Z,22.85
2016-04-03T02:23:30.722Z,22.56
2016-04-03T02:24:30.710Z,22.56
2016-04-03T02:25:30.727Z,22.66
2016-04-03T02:26:30.730Z,22.75
2016-04-03T02:27:30.732Z,22.85
2016-04-03T02:28:30.751Z,22.84
2016-04-03T02:29:30.738Z,22.85
2016-04-03T02:30:30.757Z,22.74
2016-04-03T02:31:30.774Z,23.03
2016-04-03T02:32:30.762Z,22.74
2016-04-03T02:33:30.779Z,23.04
2016-04-03T02:34:30.798Z,23.04
2016-04-03T02:35:30.785Z,23.03
2016-04-03T02:36:30.788Z,23.03
2016-04-03T02:37:30.791Z,23.03
2016-04-03T02:38:30.809Z,22.84
2016-04-03T02:39:30.796Z,22.84
2016-04-03T02:40:30.814Z,22.93
2016-04-03T02:41:30.817Z,23.03
2016-04-03T02:42:30.820Z,23.03
2016-04-03T02:43:30.838Z,22.93
2016-04-03T02:44:30.841Z,22.84
2016-04-03T02:45:30.844Z,22.93
2016-04-03T02:46:30.847Z,22.84
2016-04-03T02:47:30.850Z,22.84
2016-04-03T02:48:30.867Z,22.84
2016-04-03T02:49:30.933Z,22.84
2016-04-03T02:50:30.872Z,22.93
2016-04-03T02:51:30.875Z,22.93
2016-04-03T02:52:30.877Z,22.93
2016-04-03T02:53:30.880Z,22.84
2016-04-03T02:54:30.899Z,22.84
2016-04-03T02:55:30.902Z,22.93
2016-04-03T02:56:30.905Z,22.93
2016-04-03T02:57:30.907Z,22.84
2016-04-03T02:58:30.910Z,22.84
2016-04-03T02:59:30.913Z,22.84
2016-04-03T03:00:30.932Z,23.03
2016-04-03T03:01:30.918Z,23.04
2016-04-03T03:02:30.937Z,22.84
2016-04-03T03:03:30.939Z,22.84
2016-04-03T03:04:31.020Z,22.93
2016-04-03T03:05:30.945Z,22.93
2016-04-03T03:06:30.962Z,22.93
2016-04-03T03:07:30.965Z,22.85
2016-04-03T03:08:30.967Z,22.84
2016-04-03T03:09:30.970Z,22.93
2016-04-03T03:10:30.973Z,22.93
2016-04-03T03:11:30.992Z,22.93
2016-04-03T03:12:30.979Z,23.03
2016-04-03T03:13:30.997Z,22.93
2016-04-03T03:14:31.000Z,23.22
2016-04-03T03:15:31.017Z,22.93
2016-04-03T03:16:31.005Z,22.84
2016-04-03T03:17:31.023Z,22.74
2016-04-03T03:18:31.025Z,22.84
2016-04-03T03:19:31.045Z,22.93
2016-04-03T03:20:31.031Z,22.93
2016-04-03T03:21:31.034Z,23.22
2016-04-03T03:22:31.037Z,23.03
2016-04-03T03:23:31.055Z,23.22
2016-04-03T03:24:31.074Z,23.22
2016-04-03T03:25:31.060Z,23.13
2016-04-03T03:26:31.063Z,23.32
2016-04-03T03:27:31.066Z,23.22
2016-04-03T03:28:31.068Z,22.93
2016-04-03T03:29:31.134Z,23.41
2016-04-03T03:30:31.090Z,23.32
2016-04-03T03:31:31.092Z,23.22
2016-04-03T03:32:31.096Z,23.32
2016-04-03T03:33:31.113Z,23.22
2016-04-03T03:34:31.116Z,23.32
2016-04-03T03:35:31.119Z,23.22
2016-04-03T03:36:31.121Z,23.22
2016-04-03T03:37:31.124Z,23.41
2016-04-03T03:38:31.126Z,23.32
2016-04-03T03:39:31.145Z,23.22
2016-04-03T03:40:31.132Z,23.13
2016-04-03T03:41:31.150Z,23.32
2016-04-03T03:42:31.153Z,23.03
2016-04-03T03:43:31.171Z,23.22
2016-04-03T03:44:31.158Z,23.22
2016-04-03T03:45:31.161Z,23.32
2016-04-03T03:46:31.180Z,23.03
2016-04-03T03:47:31.183Z,22.84
2016-04-03T03:48:31.185Z,23.03
2016-04-03T03:49:31.188Z,22.84
2016-04-03T03:50:31.190Z,23.32
2016-04-03T03:51:31.193Z,23.32
2016-04-03T03:52:31.196Z,23.13
2016-04-03T03:53:31.213Z,23.13
2016-04-03T03:54:31.216Z,23.22
2016-04-03T03:55:31.235Z,23.22
2016-04-03T03:56:31.222Z,23.22
2016-04-03T03:57:31.225Z,23.03
2016-04-03T03:58:31.244Z,23.13
2016-04-03T03:59:31.246Z,23.03
2016-04-03T04:00:31.249Z,23.22
2016-04-03T04:01:31.251Z,23.32
2016-04-03T04:02:31.254Z,23.32
2016-04-03T04:03:31.272Z,22.84
2016-04-03T04:04:31.306Z,22.93
2016-04-03T04:05:31.277Z,23.32
2016-04-03T04:06:31.279Z,23.13
2016-04-03T04:07:31.283Z,23.13
2016-04-03T04:08:31.285Z,23.03
2016-04-03T04:09:31.304Z,23.41
2016-04-03T04:10:31.307Z,23.03
2016-04-03T04:11:31.309Z,23.13
2016-04-03T04:12:31.312Z,23.22
2016-04-03T04:13:31.330Z,22.93
2016-04-03T04:14:31.333Z,22.93
2016-04-03T04:15:31.336Z,22.84
2016-04-03T04:16:31.338Z,22.84
2016-04-03T04:17:31.341Z,23.13
2016-04-03T04:18:31.343Z,23.13
2016-04-03T04:19:31.268Z,22.93
2016-04-03T04:20:31.349Z,22.93
2016-04-03T04:21:31.367Z,22.93
2016-04-03T04:22:31.370Z,23.22
2016-04-03T04:23:31.373Z,23.22
2016-04-03T04:24:31.391Z,22.93
2016-04-03T04:25:31.378Z,23.03
2016-04-03T04:26:31.396Z,23.03
2016-04-03T04:27:31.399Z,23.13
2016-04-03T04:28:31.402Z,23.03
2016-04-03T04:29:31.404Z,23.61
2016-04-03T04:30:31.424Z,22.93
2016-04-03T04:31:31.426Z,23.22
2016-04-03T04:32:31.429Z,23.13
2016-04-03T04:33:31.432Z,23.22
2016-04-03T04:34:31.512Z,23.32
2016-04-03T04:35:31.452Z,23.22
2016-04-03T04:36:31.439Z,23.03
2016-04-03T04:37:31.442Z,23.61
2016-04-03T04:38:31.460Z,22.93
2016-04-03T04:39:31.462Z,23.13
2016-04-03T04:40:31.465Z,23.41
2016-04-03T04:41:31.467Z,23.22
2016-04-03T04:42:31.486Z,22.74
2016-04-03T04:43:31.489Z,23.13
2016-04-03T04:44:31.492Z,23.22
2016-04-03T04:45:31.495Z,22.93
2016-04-03T04:46:31.512Z,23.13
2016-04-03T04:47:31.500Z,23.22
2016-04-03T04:48:31.517Z,23.32
2016-04-03T04:49:31.724Z,23.32
2016-04-03T04:50:31.523Z,22.93
2016-04-03T04:51:31.526Z,23.13
2016-04-03T04:52:31.528Z,23.13
2016-04-03T04:53:31.531Z,23.22
2016-04-03T04:54:31.533Z,23.22
2016-04-03T04:55:31.552Z,23.13
2016-04-03T04:56:31.555Z,23.03
2016-04-03T04:57:31.573Z,23.13
2016-04-03T04:58:31.561Z,23.13
2016-04-03T04:59:31.563Z,23.32
2016-04-03T05:00:31.582Z,23.13
2016-04-03T05:01:31.585Z,23.22
2016-04-03T05:02:31.587Z,23.32
2016-04-03T05:03:31.590Z,23.03
2016-04-03T05:04:31.639Z,23.22
2016-04-03T05:05:31.595Z,23.22
2016-04-03T05:06:31.598Z,23.03
2016-04-03T05:07:31.616Z,23.13
2016-04-03T05:08:31.619Z,23.13
2016-04-03T05:09:31.621Z,23.13
2016-04-03T05:10:31.624Z,23.22
2016-04-03T05:11:31.642Z,23.22
2016-04-03T05:12:31.645Z,23.22
2016-04-03T05:13:31.648Z,23.13
2016-04-03T05:14:31.650Z,23.13
2016-04-03T05:15:31.658Z,23.13
2016-04-03T05:16:31.650Z,23.03
2016-04-03T05:17:31.625Z,23.03
2016-04-03T05:18:31.632Z,23.03
2016-04-03T05:19:31.750Z,23.13
2016-04-03T05:20:31.623Z,23.13
2016-04-03T05:21:31.622Z,23.13
2016-04-03T05:22:31.636Z,23.22
2016-04-03T05:23:31.634Z,23.22
2016-04-03T05:24:31.634Z,23.03
2016-04-03T05:25:31.635Z,23.32
2016-04-03T05:26:31.652Z,23.41
2016-04-03T05:27:31.653Z,23.32
2016-04-03T05:28:31.639Z,23.22
2016-04-03T05:29:31.656Z,23.32
2016-04-03T05:30:31.658Z,23.32
2016-04-03T05:31:31.675Z,23.22
2016-04-03T05:32:31.662Z,23.13
2016-04-03T05:33:31.665Z,23.13
2016-04-03T05:34:31.714Z,23.13
2016-04-03T05:35:31.684Z,22.93
2016-04-03T05:36:31.687Z,23.13
2016-04-03T05:37:31.689Z,23.22
2016-04-03T05:38:31.691Z,23.32
2016-04-03T05:39:31.710Z,23.22
2016-04-03T05:40:31.712Z,22.93
2016-04-03T05:41:31.715Z,23.13
2016-04-03T05:42:31.718Z,23.03
2016-04-03T05:43:31.720Z,22.93
2016-04-03T05:44:31.723Z,22.93
2016-04-03T05:45:31.569Z,23.22
2016-04-03T05:46:31.728Z,23.13
2016-04-03T05:47:31.747Z,22.93
2016-04-03T05:48:31.749Z,23.22
2016-04-03T05:49:31.924Z,23.03
2016-04-03T05:50:31.755Z,23.13
2016-04-03T05:51:31.773Z,23.32
2016-04-03T05:52:31.775Z,23.13
2016-04-03T05:53:31.778Z,23.03
2016-04-03T05:54:31.797Z,23.13
2016-04-03T05:55:31.784Z,22.93
2016-04-03T05:56:31.802Z,23.03
2016-04-03T05:57:31.789Z,23.13
2016-04-03T05:58:31.808Z,23.13
2016-04-03T05:59:31.811Z,22.93
2016-04-03T06:00:31.813Z,23.03
2016-04-03T06:01:31.832Z,23.13
2016-04-03T06:02:31.818Z,23.03
2016-04-03T06:03:31.837Z,23.13
2016-04-03T06:04:31.840Z,23.22
2016-04-03T06:05:31.843Z,23.13
2016-04-03T06:06:31.845Z,23.22
2016-04-03T06:07:31.848Z,23.22
2016-04-03T06:08:31.866Z,23.13
2016-04-03T06:09:31.853Z,23.13
2016-04-03T06:10:31.871Z,23.22
2016-04-03T06:11:31.874Z,23.41
2016-04-03T06:12:31.876Z,23.22
2016-04-03T06:13:31.895Z,23.32
2016-04-03T06:14:31.882Z,23.22
2016-04-03T06:15:31.900Z,23.13
2016-04-03T06:16:31.903Z,23.22
2016-04-03T06:17:31.906Z,22.84
2016-04-03T06:18:31.908Z,23.22
2016-04-03T06:19:31.958Z,22.93
2016-04-03T06:20:31.929Z,23.22
2016-04-03T06:21:31.932Z,23.32
2016-04-03T06:22:31.934Z,22.84
2016-04-03T06:23:31.937Z,23.22
2016-04-03T06:24:31.940Z,23.22
2016-04-03T06:25:31.943Z,23.22
2016-04-03T06:26:31.945Z,23.22
2016-04-03T06:27:31.964Z,23.22
2016-04-03T06:28:31.967Z,23.32
2016-04-03T06:29:31.969Z,22.84
2016-04-03T06:30:31.972Z,22.93
2016-04-03T06:31:31.991Z,23.32
2016-04-03T06:32:31.977Z,23.32
2016-04-03T06:33:31.996Z,23.41
2016-04-03T06:34:32.171Z,22.74
2016-04-03T06:35:32.001Z,22.93
2016-04-03T06:36:32.004Z,22.74
2016-04-03T06:37:32.022Z,23.03
2016-04-03T06:38:32.024Z,23.13
2016-04-03T06:39:32.043Z,22.84
2016-04-03T06:40:32.062Z,23.22
2016-04-03T06:41:32.032Z,23.22
2016-04-03T06:42:32.035Z,23.13
2016-04-03T06:43:32.054Z,23.22
2016-04-03T06:44:32.056Z,22.93
2016-04-03T06:45:32.059Z,22.84
2016-04-03T06:46:32.062Z,23.03
2016-04-03T06:47:32.065Z,23.22
2016-04-03T06:48:32.084Z,23.13
2016-04-03T06:49:32.132Z,23.22
2016-04-03T06:50:32.089Z,23.22
2016-04-03T06:51:32.091Z,23.22
2016-04-03T06:52:32.094Z,23.51
2016-04-03T06:53:32.112Z,23.41
2016-04-03T06:54:32.099Z,23.41
2016-04-03T06:55:32.117Z,23.03
2016-04-03T06:56:32.120Z,23.41
2016-04-03T06:57:32.123Z,23.41
2016-04-03T06:58:32.126Z,23.32
2016-04-03T06:59:32.128Z,23.22
2016-04-03T07:00:32.147Z,23.41
2016-04-03T07:01:32.149Z,22.93
2016-04-03T07:02:32.152Z,22.84
2016-04-03T07:03:32.170Z,22.84
2016-04-03T07:04:32.219Z,23.22
2016-04-03T07:05:32.175Z,22.85
2016-04-03T07:06:32.178Z,22.93
2016-04-03T07:07:32.180Z,23.22
2016-04-03T07:08:32.199Z,22.84
2016-04-03T07:09:32.186Z,22.74
2016-04-03T07:10:32.204Z,23.32
2016-04-03T07:11:32.192Z,23.32
2016-04-03T07:12:32.226Z,22.84
2016-04-03T07:13:32.197Z,23.04
2016-04-03T07:14:32.216Z,23.03
2016-04-03T07:15:32.219Z,22.93
2016-04-03T07:16:32.221Z,22.93
2016-04-03T07:17:32.240Z,22.93
2016-04-03T07:18:32.243Z,23.32
2016-04-03T07:19:32.276Z,23.03
2016-04-03T07:20:32.248Z,23.03
2016-04-03T07:21:32.110Z,22.66
2016-04-03T07:22:32.268Z,22.85
2016-04-03T07:23:32.271Z,23.04
2016-04-03T07:24:32.273Z,22.94
2016-04-03T07:25:32.276Z,22.46
2016-04-03T07:26:32.279Z,22.17
2016-04-03T07:27:32.281Z,22.56
2016-04-03T07:28:32.300Z,22.56
2016-04-03T07:29:32.303Z,22.27
2016-04-03T07:30:32.305Z,22.17
2016-04-03T07:31:32.308Z,22.17
2016-04-03T07:32:32.514Z,22.36
2016-04-03T07:33:32.345Z,22.17
2016-04-03T07:34:32.411Z,22.08
2016-04-03T07:35:32.336Z,22.66
2016-04-03T07:36:32.338Z,22.85
2016-04-03T07:37:32.356Z,22.56
2016-04-03T07:38:32.359Z,23.04
2016-04-03T07:39:32.361Z,23.04
2016-04-03T07:40:32.364Z,23.04
2016-04-03T07:41:32.366Z,22.94
2016-04-03T07:42:32.369Z,22.85
2016-04-03T07:43:32.372Z,22.94
2016-04-03T07:44:32.390Z,22.84
2016-04-03T07:45:32.408Z,23.04
2016-04-03T07:46:32.396Z,23.04
2016-04-03T07:47:32.398Z,22.94
2016-04-03T07:48:32.416Z,22.85
2016-04-03T07:49:32.418Z,22.75
2016-04-03T07:50:32.421Z,23.14
2016-04-03T07:51:32.424Z,22.85
2016-04-03T07:52:32.443Z,22.66
2016-04-03T07:53:32.446Z,22.94
2016-04-03T07:54:32.448Z,23.14
2016-04-03T07:55:32.451Z,22.85
2016-04-03T07:56:32.454Z,22.85
2016-04-03T07:57:32.472Z,22.94
2016-04-03T07:58:32.459Z,22.94
2016-04-03T07:59:32.478Z,22.94
2016-04-03T08:00:32.480Z,22.85
2016-04-03T08:01:32.498Z,22.94
2016-04-03T08:02:32.485Z,23.04
2016-04-03T08:03:32.489Z,22.85
2016-04-03T08:04:32.491Z,22.75
2016-04-03T08:05:32.509Z,22.94
2016-04-03T08:06:32.512Z,22.85
2016-04-03T08:07:32.530Z,22.94
2016-04-03T08:08:32.517Z,22.94
2016-04-03T08:09:32.535Z,22.94
2016-04-03T08:10:32.538Z,22.85
2016-04-03T08:11:32.541Z,22.85
2016-04-03T08:12:32.544Z,22.75
2016-04-03T08:13:32.546Z,22.94
2016-04-03T08:14:32.549Z,22.75
2016-04-03T08:15:32.568Z,22.85
2016-04-03T08:16:32.570Z,22.85
2016-04-03T08:17:32.573Z,22.75
2016-04-03T08:18:32.575Z,22.66
2016-04-03T08:19:32.687Z,22.66
2016-04-03T08:20:32.596Z,22.46
2016-04-03T08:21:32.598Z,22.94
2016-04-03T08:22:32.602Z,22.85
2016-04-03T08:23:32.620Z,22.66
2016-04-03T08:24:32.607Z,22.85
2016-04-03T08:25:32.626Z,22.75
2016-04-03T08:26:32.629Z,22.85
2016-04-03T08:27:32.631Z,22.85
2016-04-03T08:28:32.649Z,22.94
2016-04-03T08:29:32.637Z,22.94
2016-04-03T08:30:32.654Z,22.85
2016-04-03T08:31:32.657Z,22.94
2016-04-03T08:32:32.660Z,23.04
2016-04-03T08:33:32.662Z,23.04
2016-04-03T08:34:32.697Z,23.04
2016-04-03T08:35:32.684Z,22.85
2016-04-03T08:36:32.686Z,22.94
2016-04-03T08:37:32.689Z,22.85
2016-04-03T08:38:32.691Z,22.94
2016-04-03T08:39:32.710Z,22.94
2016-04-03T08:40:32.713Z,22.94
2016-04-03T08:41:32.715Z,22.94
2016-04-03T08:42:32.718Z,22.94
2016-04-03T08:43:32.721Z,22.93
2016-04-03T08:44:32.739Z,22.85
2016-04-03T08:45:32.741Z,23.04
2016-04-03T08:46:32.744Z,22.85
2016-04-03T08:47:32.746Z,22.85
2016-04-03T08:48:32.765Z,22.84
2016-04-03T08:49:32.830Z,22.94
2016-04-03T08:50:32.770Z,23.04
2016-04-03T08:51:32.773Z,22.85
2016-04-03T08:52:32.776Z,23.04
2016-04-03T08:53:32.778Z,23.04
2016-04-03T08:54:32.781Z,22.94
2016-04-03T08:55:32.784Z,22.85
2016-04-03T08:56:32.802Z,22.85
2016-04-03T08:57:32.806Z,23.04
2016-04-03T08:58:32.808Z,22.85
2016-04-03T08:59:32.811Z,22.94
2016-04-03T09:00:32.828Z,22.94
2016-04-03T09:01:32.831Z,23.24
2016-04-03T09:02:32.834Z,23.41
2016-04-03T09:03:32.852Z,23.14
2016-04-03T09:04:32.777Z,23.43
2016-04-03T09:05:32.842Z,22.93
2016-04-03T09:06:32.861Z,23.33
2016-04-03T09:07:32.704Z,22.93
2016-04-03T09:08:32.857Z,23.43
2016-04-03T09:09:32.876Z,23.24
2016-04-03T09:10:32.879Z,23.33
2016-04-03T09:11:32.881Z,23.32
2016-04-03T09:12:32.884Z,23.13
2016-04-03T09:13:32.901Z,23.24
2016-04-03T09:14:32.889Z,23.41
2016-04-03T09:15:32.907Z,23.32
2016-04-03T09:16:32.910Z,23.13
2016-04-03T09:17:32.913Z,23.04
2016-04-03T09:18:32.915Z,23.22
2016-04-03T09:19:32.778Z,23.24
2016-04-03T09:20:32.937Z,22.94
2016-04-03T09:21:32.939Z,23.33
2016-04-03T09:22:32.942Z,22.85
2016-04-03T09:23:32.960Z,22.94
2016-04-03T09:24:32.947Z,23.04
2016-04-03T09:25:32.949Z,22.75
2016-04-03T09:26:32.968Z,22.08
2016-04-03T09:27:32.971Z,22.36
2016-04-03T09:28:32.974Z,22.27
2016-04-03T09:29:32.977Z,22.27
2016-04-03T09:30:32.979Z,22.27
2016-04-03T09:31:32.997Z,22.27
2016-04-03T09:32:33.046Z,22.57
2016-04-03T09:33:33.019Z,22.17
2016-04-03T09:34:33.099Z,22.46
2016-04-03T09:35:33.008Z,22.36
2016-04-03T09:36:33.026Z,22.17
2016-04-03T09:37:33.029Z,22.46
2016-04-03T09:38:33.034Z,22.27
2016-04-03T09:39:33.036Z,22.56
2016-04-03T09:40:33.054Z,22.17
2016-04-03T09:41:33.057Z,21.8
2016-04-03T09:42:33.059Z,22.36
2016-04-03T09:43:33.078Z,22.19
2016-04-03T09:44:33.065Z,21.88
2016-04-03T09:45:33.068Z,21.89
2016-04-03T09:46:33.086Z,22.08
2016-04-03T09:47:33.089Z,21.88
2016-04-03T09:48:33.108Z,21.89
2016-04-03T09:49:33.172Z,22.46
2016-04-03T09:50:33.113Z,21.99
2016-04-03T09:51:33.116Z,21.8
2016-04-03T09:52:33.134Z,21.89
2016-04-03T09:53:33.137Z,21.89
2016-04-03T09:54:33.124Z,21.8
2016-04-03T09:55:33.126Z,22.27
2016-04-03T09:56:33.144Z,22.08
2016-04-03T09:57:33.163Z,22.08
2016-04-03T09:58:33.149Z,22.17
2016-04-03T09:59:33.168Z,21.79
2016-04-03T10:00:33.171Z,21.8
2016-04-03T10:01:33.174Z,21.89
2016-04-03T10:02:33.202Z,21.79
2016-04-03T10:03:33.035Z,21.99
2016-04-03T10:04:33.227Z,21.99
2016-04-03T10:05:33.253Z,21.99
2016-04-03T10:06:33.374Z,22.19
2016-04-03T10:07:33.221Z,21.89
2016-04-03T10:08:33.207Z,21.89
2016-04-03T10:09:33.210Z,21.99
2016-04-03T10:10:33.228Z,21.99
2016-04-03T10:11:33.232Z,22.38
2016-04-03T10:12:33.234Z,22.09
2016-04-03T10:13:33.253Z,21.99
2016-04-03T10:14:33.256Z,22.19
2016-04-03T10:15:33.273Z,22.09
2016-04-03T10:16:33.261Z,22.09
2016-04-03T10:17:33.263Z,21.99
2016-04-03T10:18:33.281Z,22.09
2016-04-03T10:19:33.300Z,21.99
2016-04-03T10:20:33.287Z,22.09
2016-04-03T10:21:33.289Z,21.89
2016-04-03T10:22:33.308Z,21.99
2016-04-03T10:23:33.311Z,21.99
2016-04-03T10:24:33.330Z,21.7
2016-04-03T10:25:33.316Z,22.09
2016-04-03T10:26:33.335Z,22.09
2016-04-03T10:27:33.337Z,22.09
2016-04-03T10:28:33.340Z,22.09
2016-04-03T10:29:33.358Z,22.09
2016-04-03T10:30:33.361Z,22.09
2016-04-03T10:31:33.364Z,22.38
2016-04-03T10:32:33.366Z,22.09
2016-04-03T10:33:33.385Z,22.09
2016-04-03T10:34:33.418Z,22.09
2016-04-03T10:35:33.390Z,22.09
2016-04-03T10:36:33.392Z,21.99
2016-04-03T10:37:33.395Z,22.09
2016-04-03T10:38:33.413Z,22.09
2016-04-03T10:39:33.416Z,21.89
2016-04-03T10:40:33.435Z,22.09
2016-04-03T10:41:33.421Z,21.99
2016-04-03T10:42:33.440Z,21.99
2016-04-03T10:43:33.443Z,21.89
2016-04-03T10:44:33.446Z,21.89
2016-04-03T10:45:33.448Z,22.09
2016-04-03T10:46:33.467Z,21.89
2016-04-03T10:47:33.470Z,22.57
2016-04-03T10:48:33.472Z,21.99
2016-04-03T10:49:33.475Z,21.8
2016-04-03T10:50:33.492Z,21.89
2016-04-03T10:51:33.511Z,21.89
2016-04-03T10:52:33.513Z,21.99
2016-04-03T10:53:33.500Z,22.28
2016-04-03T10:54:33.519Z,21.89
2016-04-03T10:55:33.522Z,21.99
2016-04-03T10:56:33.525Z,21.99
2016-04-03T10:57:33.527Z,21.89
2016-04-03T10:58:33.530Z,21.99
2016-04-03T10:59:33.548Z,21.89
2016-04-03T11:00:33.551Z,22.28
2016-04-03T11:01:33.568Z,21.89
2016-04-03T11:02:33.556Z,22.19
2016-04-03T11:03:33.559Z,21.89
2016-04-03T11:04:33.452Z,22.47
2016-04-03T11:05:33.580Z,22.38
2016-04-03T11:06:33.583Z,22.09
2016-04-03T11:07:33.609Z,22.38
2016-04-03T11:08:33.595Z,22.28
2016-04-03T11:09:33.598Z,22.28
2016-04-03T11:10:33.617Z,22.28
2016-04-03T11:11:33.620Z,22.28
2016-04-03T11:12:33.638Z,22.28
2016-04-03T11:13:33.625Z,22.28
2016-04-03T11:14:33.643Z,22.47
2016-04-03T11:15:33.645Z,22.28
2016-04-03T11:16:33.648Z,22.28
2016-04-03T11:17:33.650Z,22.28
2016-04-03T11:18:33.669Z,22.38
2016-04-03T11:19:33.781Z,22.28
2016-04-03T11:20:33.675Z,22.28
2016-04-03T11:21:33.677Z,22.19
2016-04-03T11:22:33.680Z,22.19
2016-04-03T11:23:33.699Z,22.19
2016-04-03T11:24:33.701Z,22.28
2016-04-03T11:25:33.719Z,22.38
2016-04-03T11:26:33.707Z,22.28
2016-04-03T11:27:33.725Z,22.28
2016-04-03T11:28:33.728Z,22.28
2016-04-03T11:29:33.730Z,22.28
2016-04-03T11:30:33.733Z,22.28
2016-04-03T11:31:33.752Z,22.28
2016-04-03T11:32:33.754Z,22.19
2016-04-03T11:33:33.757Z,22.38
2016-04-03T11:34:33.759Z,22.57
2016-04-03T11:35:33.762Z,22.09
2016-04-03T11:36:33.624Z,22.38
2016-04-03T11:37:33.783Z,22.28
2016-04-03T11:38:33.802Z,22.28
2016-04-03T11:39:33.804Z,22.38
2016-04-03T11:40:33.651Z,22.28
2016-04-03T11:41:33.809Z,22.38
2016-04-03T11:42:33.828Z,22.38
2016-04-03T11:43:33.830Z,22.38
2016-04-03T11:44:33.833Z,22.28
2016-04-03T11:45:33.851Z,22.19
2016-04-03T11:46:33.854Z,22.38
2016-04-03T11:47:33.842Z,22.28
2016-04-03T11:48:33.859Z,21.99
2016-04-03T11:49:33.862Z,22.09
2016-04-03T11:50:33.865Z,22.57
2016-04-03T11:51:33.884Z,22.56
2016-04-03T11:52:33.886Z,22.47
2016-04-03T11:53:33.889Z,22.47
2016-04-03T11:54:33.923Z,22.09
2016-04-03T11:55:33.894Z,21.99
2016-04-03T11:56:33.897Z,22.96
2016-04-03T11:57:33.899Z,22.96
2016-04-03T11:58:33.918Z,22.96
2016-04-03T11:59:33.920Z,22.57
2016-04-03T12:00:33.938Z,22.57
2016-04-03T12:01:33.942Z,22.47
2016-04-03T12:02:33.944Z,22.67
2016-04-03T12:03:33.946Z,22.67
2016-04-03T12:04:33.950Z,22.96
2016-04-03T12:05:33.953Z,22.86
2016-04-03T12:06:33.971Z,22.76
2016-04-03T12:07:33.973Z,22.76
2016-04-03T12:08:33.976Z,22.57
2016-04-03T12:09:33.994Z,22.96
2016-04-03T12:10:33.997Z,22.57
2016-04-03T12:11:34.000Z,22.47
2016-04-03T12:12:34.018Z,22.57
2016-04-03T12:13:34.005Z,22.57
2016-04-03T12:14:34.023Z,22.57
2016-04-03T12:15:34.026Z,22.86
2016-04-03T12:16:34.029Z,22.57
2016-04-03T12:17:34.032Z,22.96
2016-04-03T12:18:34.050Z,22.86
2016-04-03T12:19:33.895Z,22.86
2016-04-03T12:20:34.056Z,22.57
2016-04-03T12:21:34.073Z,22.57
2016-04-03T12:22:34.061Z,22.96
2016-04-03T12:23:34.078Z,22.86
2016-04-03T12:24:34.081Z,22.96
2016-04-03T12:25:34.084Z,22.86
2016-04-03T12:26:34.102Z,22.76
2016-04-03T12:27:34.106Z,22.76
2016-04-03T12:28:34.124Z,22.67
2016-04-03T12:29:34.127Z,22.86
2016-04-03T12:30:34.130Z,22.96
2016-04-03T12:31:34.116Z,22.86
2016-04-03T12:32:34.135Z,22.57
2016-04-03T12:33:34.138Z,22.67
2016-04-03T12:34:34.140Z,22.67
2016-04-03T12:35:34.159Z,22.96
2016-04-03T12:36:34.161Z,22.76
2016-04-03T12:37:34.163Z,22.96
2016-04-03T12:38:34.182Z,22.86
2016-04-03T12:39:34.012Z,22.96
2016-04-03T12:40:34.172Z,22.86
2016-04-03T12:41:34.191Z,22.57
2016-04-03T12:42:34.193Z,22.96
2016-04-03T12:43:34.196Z,22.96
2016-04-03T12:44:34.214Z,22.86
2016-04-03T12:45:34.216Z,23.05
2016-04-03T12:46:34.219Z,22.86
2016-04-03T12:47:34.238Z,22.96
2016-04-03T12:48:34.257Z,22.96
2016-04-03T12:49:34.227Z,22.67
2016-04-03T12:50:34.246Z,22.96
2016-04-03T12:51:34.249Z,22.67
2016-04-03T12:52:34.282Z,23.24